Portada
METAR-TAF:

METAR-TAF

Aeropuertos :

Zahedan, Irán

latitud: 29-28N, longitud: 060-53E, altitud: 1370 m

Observación

El informe se hizo hace 22 minutos, a las 10:00 UTC
Viento 6 kt del oeste-suroeste
Temperatura 27°C
Humedad 24%
Presión 1017 hPa
Visibilidad 10 km o más
Nubes dispersas a una altura de 4000 ft

METAR: OIZH 161000Z 24006KT 9999 SCT040 27/05 Q1017 A3003 NOSIG

Hora: 14:52 (10:22 UTC)

Pronóstico

El informe se hizo hace 5 horas y 12 minutos, a las 05:10 UTC
Pronóstico válido del 16 a las 06 UTC al 17 a las 12 UTC
Viento 8 kt del oeste
Visibilidad: 8000 m
Escasas nubes a una altura de 3500 ft
Temporalmente
del 16 a las 06 UTC al 16 a las 16 UTC
Viento 18 kt del noreste
Probabilidad 30%
del 16 a las 09 UTC al 16 a las 14 UTC
Visibilidad: 5000 m
arena

TAF: OIZH 160510Z 1606/1712 28008KT 8000 FEW035 TEMPO 1606/1616 04018KT PROB30 1609/1614 5000 SA

Observaciones y pronósticos meteorológicos de más de 4000 aeropuertos (mensajes METAR y TAF).

Los puntos amarillos y rojos representan las estaciones disponibles.

Ponga el ratón en el punto deseado para ver el nombre de la estación.

Haga clic para ver las observaciones y los pronósticos meteorológicos.

Para cambiar el mapa : haga clic en los botones verdes con una cruz de color negro para hacer un zoom, en el botón verde con un guión para alejar o en las flechas verdes para mapas adyacentes.


METAR-TAF: